sensor_id;sensor_type;location;lat;lon;timestamp;pressure;altitude;pressure_sealevel;temperature;humidity
48774;BME280;34576;0.000;0.000;2024-01-30T00:06:30;97975.56;;;17.00;67.95
48774;BME280;34576;0.000;0.000;2024-01-30T00:13:31;97977.75;;;17.03;67.79
48774;BME280;34576;0.000;0.000;2024-01-30T00:20:31;97976.16;;;17.02;69.24
48774;BME280;34576;0.000;0.000;2024-01-30T00:27:32;97970.03;;;17.01;69.01
48774;BME280;34576;0.000;0.000;2024-01-30T00:34:32;97974.47;;;17.24;70.18
48774;BME280;34576;0.000;0.000;2024-01-30T00:41:32;97975.56;;;17.12;70.05
48774;BME280;34576;0.000;0.000;2024-01-30T00:48:32;97977.38;;;17.11;69.22
48774;BME280;34576;0.000;0.000;2024-01-30T00:55:33;97973.44;;;17.14;70.13
48774;BME280;34576;0.000;0.000;2024-01-30T01:02:34;97976.91;;;17.14;69.85
48774;BME280;34576;0.000;0.000;2024-01-30T01:09:34;97979.56;;;17.14;69.52
48774;BME280;34576;0.000;0.000;2024-01-30T01:16:34;97980.63;;;17.13;69.47
48774;BME280;34576;0.000;0.000;2024-01-30T01:23:35;97988.59;;;17.13;69.98
48774;BME280;34576;0.000;0.000;2024-01-30T01:30:35;97985.94;;;17.13;69.52
48774;BME280;34576;0.000;0.000;2024-01-30T01:37:35;97981.97;;;17.16;69.24
48774;BME280;34576;0.000;0.000;2024-01-30T01:44:35;97973.94;;;17.11;69.88
48774;BME280;34576;0.000;0.000;2024-01-30T01:51:36;97977.38;;;17.11;70.48
48774;BME280;34576;0.000;0.000;2024-01-30T01:58:36;97961.44;;;17.11;70.53
48774;BME280;34576;0.000;0.000;2024-01-30T02:05:38;97962.03;;;17.13;70.30
48774;BME280;34576;0.000;0.000;2024-01-30T02:12:38;97957.75;;;17.12;70.35
48774;BME280;34576;0.000;0.000;2024-01-30T02:19:39;97955.19;;;17.17;69.94
48774;BME280;34576;0.000;0.000;2024-01-30T02:26:39;97951.06;;;17.27;68.58
48774;BME280;34576;0.000;0.000;2024-01-30T02:33:39;97960.50;;;17.17;69.35
48774;BME280;34576;0.000;0.000;2024-01-30T02:40:40;97948.91;;;17.23;68.95
48774;BME280;34576;0.000;0.000;2024-01-30T02:47:40;97947.53;;;17.21;69.01
48774;BME280;34576;0.000;0.000;2024-01-30T02:54:40;97942.69;;;17.18;69.95
48774;BME280;34576;0.000;0.000;2024-01-30T03:01:44;97945.59;;;17.16;70.40
48774;BME280;34576;0.000;0.000;2024-01-30T03:08:44;97945.91;;;17.20;69.86
48774;BME280;34576;0.000;0.000;2024-01-30T03:15:44;97957.25;;;17.15;70.42
48774;BME280;34576;0.000;0.000;2024-01-30T03:22:45;97966.84;;;17.16;70.40
48774;BME280;34576;0.000;0.000;2024-01-30T03:29:45;97969.13;;;17.24;69.85
48774;BME280;34576;0.000;0.000;2024-01-30T03:36:45;97973.31;;;17.20;69.57
48774;BME280;34576;0.000;0.000;2024-01-30T03:43:46;97978.53;;;17.15;70.31
48774;BME280;34576;0.000;0.000;2024-01-30T03:50:47;97983.38;;;17.18;70.02
48774;BME280;34576;0.000;0.000;2024-01-30T03:57:47;97984.88;;;17.14;69.67
48774;BME280;34576;0.000;0.000;2024-01-30T04:04:47;97983.38;;;17.18;69.63
48774;BME280;34576;0.000;0.000;2024-01-30T04:11:48;97994.59;;;17.20;69.64
48774;BME280;34576;0.000;0.000;2024-01-30T04:18:48;97998.19;;;17.14;69.97
48774;BME280;34576;0.000;0.000;2024-01-30T04:25:48;98006.59;;;17.23;68.14
48774;BME280;34576;0.000;0.000;2024-01-30T04:32:49;98008.69;;;17.21;69.05
48774;BME280;34576;0.000;0.000;2024-01-30T04:39:49;98010.78;;;17.19;69.38
48774;BME280;34576;0.000;0.000;2024-01-30T04:46:49;98004.63;;;17.18;69.73
48774;BME280;34576;0.000;0.000;2024-01-30T04:53:49;97996.66;;;17.18;70.12
48774;BME280;34576;0.000;0.000;2024-01-30T05:00:50;98001.19;;;17.18;70.20
48774;BME280;34576;0.000;0.000;2024-01-30T05:07:51;98007.53;;;17.17;70.61
48774;BME280;34576;0.000;0.000;2024-01-30T05:14:52;98000.84;;;17.14;70.75
48774;BME280;34576;0.000;0.000;2024-01-30T05:21:52;98006.16;;;17.14;70.59
48774;BME280;34576;0.000;0.000;2024-01-30T05:28:52;98009.28;;;17.23;70.51
48774;BME280;34576;0.000;0.000;2024-01-30T05:35:53;98016.56;;;17.45;67.79
48774;BME280;34576;0.000;0.000;2024-01-30T05:42:54;98014.75;;;14.39;52.65
48774;BME280;34576;0.000;0.000;2024-01-30T05:49:55;98035.72;;;13.65;46.54
48774;BME280;34576;0.000;0.000;2024-01-30T05:56:55;98041.78;;;13.72;45.94
48774;BME280;34576;0.000;0.000;2024-01-30T06:03:55;98032.16;;;13.53;44.91
48774;BME280;34576;0.000;0.000;2024-01-30T06:10:55;98032.34;;;15.26;47.02
48774;BME280;34576;0.000;0.000;2024-01-30T06:17:56;98031.09;;;16.01;50.40
48774;BME280;34576;0.000;0.000;2024-01-30T06:24:56;98028.81;;;16.17;52.70
48774;BME280;34576;0.000;0.000;2024-01-30T06:31:56;98025.44;;;16.21;54.43
48774;BME280;34576;0.000;0.000;2024-01-30T06:38:57;98025.00;;;16.25;55.12
48774;BME280;34576;0.000;0.000;2024-01-30T06:45:57;98026.84;;;16.24;56.30
48774;BME280;34576;0.000;0.000;2024-01-30T06:52:58;98037.22;;;16.26;57.24
48774;BME280;34576;0.000;0.000;2024-01-30T06:59:58;98028.69;;;16.24;57.70
48774;BME280;34576;0.000;0.000;2024-01-30T07:06:58;98038.06;;;16.26;58.27
48774;BME280;34576;0.000;0.000;2024-01-30T07:13:58;98040.13;;;16.24;58.53
48774;BME280;34576;0.000;0.000;2024-01-30T07:20:59;98042.78;;;16.24;59.12
48774;BME280;34576;0.000;0.000;2024-01-30T07:27:59;98046.81;;;16.27;59.34
48774;BME280;34576;0.000;0.000;2024-01-30T07:35:00;98056.84;;;16.25;59.57
48774;BME280;34576;0.000;0.000;2024-01-30T07:42:00;98055.81;;;16.26;60.01
48774;BME280;34576;0.000;0.000;2024-01-30T07:49:00;98053.41;;;16.24;60.14
48774;BME280;34576;0.000;0.000;2024-01-30T07:56:01;98054.78;;;16.27;60.23
48774;BME280;34576;0.000;0.000;2024-01-30T08:03:03;98057.44;;;16.27;60.50
48774;BME280;34576;0.000;0.000;2024-01-30T08:10:03;98064.81;;;16.25;60.86
48774;BME280;34576;0.000;0.000;2024-01-30T08:17:03;98054.44;;;16.23;61.31
48774;BME280;34576;0.000;0.000;2024-01-30T08:24:04;98052.59;;;16.24;61.40
48774;BME280;34576;0.000;0.000;2024-01-30T08:31:04;98052.13;;;16.27;61.31
48774;BME280;34576;0.000;0.000;2024-01-30T08:38:05;98033.56;;;16.27;61.58
48774;BME280;34576;0.000;0.000;2024-01-30T08:45:05;98030.31;;;16.25;61.36
48774;BME280;34576;0.000;0.000;2024-01-30T08:52:05;98031.47;;;16.29;61.27
48774;BME280;34576;0.000;0.000;2024-01-30T08:59:07;98030.44;;;16.30;61.34
48774;BME280;34576;0.000;0.000;2024-01-30T09:06:10;98021.44;;;16.31;61.31
48774;BME280;34576;0.000;0.000;2024-01-30T09:13:10;98037.94;;;16.33;61.25
48774;BME280;34576;0.000;0.000;2024-01-30T09:20:11;98034.72;;;16.31;61.50
48774;BME280;34576;0.000;0.000;2024-01-30T09:27:11;98034.25;;;16.34;61.40
48774;BME280;34576;0.000;0.000;2024-01-30T09:34:12;98051.44;;;16.31;61.51
48774;BME280;34576;0.000;0.000;2024-01-30T09:41:12;98056.75;;;16.31;61.52
48774;BME280;34576;0.000;0.000;2024-01-30T09:48:13;98061.25;;;16.31;61.73
48774;BME280;34576;0.000;0.000;2024-01-30T09:55:13;98054.91;;;16.32;61.78
48774;BME280;34576;0.000;0.000;2024-01-30T10:02:13;98064.94;;;16.30;61.89
48774;BME280;34576;0.000;0.000;2024-01-30T10:09:14;98065.75;;;16.30;61.79
48774;BME280;34576;0.000;0.000;2024-01-30T10:16:14;98063.91;;;16.31;61.76
48774;BME280;34576;0.000;0.000;2024-01-30T10:23:17;98051.66;;;16.30;62.06
48774;BME280;34576;0.000;0.000;2024-01-30T10:30:17;98056.75;;;16.31;61.82
48774;BME280;34576;0.000;0.000;2024-01-30T10:37:19;98058.59;;;16.31;61.80
48774;BME280;34576;0.000;0.000;2024-01-30T10:44:21;98047.16;;;16.30;62.14
48774;BME280;34576;0.000;0.000;2024-01-30T10:51:22;98040.81;;;16.31;62.06
48774;BME280;34576;0.000;0.000;2024-01-30T10:58:22;98042.66;;;16.31;62.04
48774;BME280;34576;0.000;0.000;2024-01-30T11:05:23;98042.06;;;16.29;62.28
48774;BME280;34576;0.000;0.000;2024-01-30T11:12:25;98038.84;;;16.27;62.18
48774;BME280;34576;0.000;0.000;2024-01-30T11:19:26;98036.75;;;16.29;61.99
48774;BME280;34576;0.000;0.000;2024-01-30T11:26:30;98034.13;;;16.29;62.21
48774;BME280;34576;0.000;0.000;2024-01-30T11:33:31;98034.13;;;16.29;62.21
48774;BME280;34576;0.000;0.000;2024-01-30T11:40:33;98029.28;;;16.26;62.38
48774;BME280;34576;0.000;0.000;2024-01-30T11:47:35;98021.31;;;16.26;62.25
48774;BME280;34576;0.000;0.000;2024-01-30T11:54:35;98022.34;;;16.25;62.36
48774;BME280;34576;0.000;0.000;2024-01-30T12:01:36;98012.53;;;16.25;62.36
48774;BME280;34576;0.000;0.000;2024-01-30T12:08:36;98005.84;;;16.22;62.51
48774;BME280;34576;0.000;0.000;2024-01-30T12:15:36;97998.00;;;16.28;62.30
48774;BME280;34576;0.000;0.000;2024-01-30T12:22:37;97996.69;;;16.30;62.27
48774;BME280;34576;0.000;0.000;2024-01-30T12:29:41;97990.03;;;16.28;62.25
48774;BME280;34576;0.000;0.000;2024-01-30T12:36:41;97993.25;;;16.30;62.16
48774;BME280;34576;0.000;0.000;2024-01-30T12:43:42;98001.44;;;16.28;62.30
48774;BME280;34576;0.000;0.000;2024-01-30T12:50:42;98001.69;;;16.27;62.53
48774;BME280;34576;0.000;0.000;2024-01-30T12:57:42;97994.75;;;16.26;62.43
48774;BME280;34576;0.000;0.000;2024-01-30T13:04:43;97991.88;;;16.27;62.56
48774;BME280;34576;0.000;0.000;2024-01-30T13:11:43;97992.69;;;16.28;62.39
48774;BME280;34576;0.000;0.000;2024-01-30T13:18:44;97995.56;;;16.26;62.49
48774;BME280;34576;0.000;0.000;2024-01-30T13:25:44;98000.88;;;16.26;62.56
48774;BME280;34576;0.000;0.000;2024-01-30T13:32:44;97994.19;;;16.24;62.72
48774;BME280;34576;0.000;0.000;2024-01-30T13:39:46;97986.00;;;16.25;62.56
48774;BME280;34576;0.000;0.000;2024-01-30T13:46:46;97983.34;;;16.25;62.57
48774;BME280;34576;0.000;0.000;2024-01-30T13:53:47;97990.47;;;16.25;62.66
48774;BME280;34576;0.000;0.000;2024-01-30T14:00:47;97987.81;;;16.25;62.69
48774;BME280;34576;0.000;0.000;2024-01-30T14:07:47;97997.41;;;16.26;62.69
48774;BME280;34576;0.000;0.000;2024-01-30T14:14:48;97992.34;;;16.24;62.79
48774;BME280;34576;0.000;0.000;2024-01-30T14:21:48;97996.00;;;16.23;62.80
48774;BME280;34576;0.000;0.000;2024-01-30T14:28:48;97997.88;;;16.22;62.77
48774;BME280;34576;0.000;0.000;2024-01-30T14:35:49;98006.88;;;16.21;62.81
48774;BME280;34576;0.000;0.000;2024-01-30T14:42:49;98008.72;;;16.21;62.75
48774;BME280;34576;0.000;0.000;2024-01-30T14:49:50;98014.84;;;16.21;62.71
48774;BME280;34576;0.000;0.000;2024-01-30T14:56:50;98023.84;;;16.20;62.70
48774;BME280;34576;0.000;0.000;2024-01-30T15:03:51;98028.09;;;16.21;62.67
48774;BME280;34576;0.000;0.000;2024-01-30T15:10:52;98017.72;;;16.20;62.86
48774;BME280;34576;0.000;0.000;2024-01-30T15:17:52;98022.22;;;16.19;62.86
48774;BME280;34576;0.000;0.000;2024-01-30T15:24:53;98032.84;;;16.19;62.54
48774;BME280;34576;0.000;0.000;2024-01-30T15:31:54;98025.13;;;16.18;62.52
48774;BME280;34576;0.000;0.000;2024-01-30T15:38:54;98029.59;;;16.17;62.66
48774;BME280;34576;0.000;0.000;2024-01-30T15:45:54;98026.75;;;16.19;62.47
48774;BME280;34576;0.000;0.000;2024-01-30T15:52:55;98034.13;;;16.17;62.43
48774;BME280;34576;0.000;0.000;2024-01-30T15:59:55;98050.03;;;16.17;62.50
48774;BME280;34576;0.000;0.000;2024-01-30T16:06:55;98048.66;;;16.14;62.74
48774;BME280;34576;0.000;0.000;2024-01-30T16:13:55;98056.06;;;16.12;62.55
48774;BME280;34576;0.000;0.000;2024-01-30T16:20:56;98065.41;;;16.15;62.52
48774;BME280;34576;0.000;0.000;2024-01-30T16:27:56;98062.16;;;16.13;62.48
48774;BME280;34576;0.000;0.000;2024-01-30T16:34:57;98069.78;;;16.09;62.58
48774;BME280;34576;0.000;0.000;2024-01-30T16:41:58;98077.75;;;16.09;62.28
48774;BME280;34576;0.000;0.000;2024-01-30T16:48:58;98083.63;;;16.11;62.58
48774;BME280;34576;0.000;0.000;2024-01-30T16:55:59;98089.84;;;16.05;62.57
48774;BME280;34576;0.000;0.000;2024-01-30T17:02:59;98097.59;;;16.07;62.44
48774;BME280;34576;0.000;0.000;2024-01-30T17:10:03;98103.69;;;16.07;62.51
48774;BME280;34576;0.000;0.000;2024-01-30T17:17:03;98108.66;;;16.03;62.48
48774;BME280;34576;0.000;0.000;2024-01-30T17:24:03;98113.16;;;16.03;62.44
48774;BME280;34576;0.000;0.000;2024-01-30T17:31:04;98116.16;;;16.07;62.40
48774;BME280;34576;0.000;0.000;2024-01-30T17:38:04;98115.81;;;16.03;62.52
48774;BME280;34576;0.000;0.000;2024-01-30T17:45:04;98135.44;;;16.02;62.41
48774;BME280;34576;0.000;0.000;2024-01-30T17:52:05;98141.78;;;16.01;62.54
48774;BME280;34576;0.000;0.000;2024-01-30T17:59:06;98134.84;;;16.00;62.33
48774;BME280;34576;0.000;0.000;2024-01-30T18:06:06;98140.16;;;16.00;62.35
48774;BME280;34576;0.000;0.000;2024-01-30T18:13:07;98148.50;;;16.15;61.05
48774;BME280;34576;0.000;0.000;2024-01-30T18:20:09;98148.03;;;16.18;60.86
48774;BME280;34576;0.000;0.000;2024-01-30T18:27:09;98156.59;;;16.20;60.95
48774;BME280;34576;0.000;0.000;2024-01-30T18:34:09;98178.06;;;16.19;60.66
48774;BME280;34576;0.000;0.000;2024-01-30T18:41:09;98167.22;;;16.20;60.54
48774;BME280;34576;0.000;0.000;2024-01-30T18:48:10;98173.56;;;16.19;60.44
48774;BME280;34576;0.000;0.000;2024-01-30T18:55:12;98170.13;;;16.19;60.43
48774;BME280;34576;0.000;0.000;2024-01-30T19:02:12;98167.88;;;16.16;60.55
48774;BME280;34576;0.000;0.000;2024-01-30T19:09:13;98163.84;;;16.13;60.88
48774;BME280;34576;0.000;0.000;2024-01-30T19:16:15;98167.53;;;16.12;61.24
48774;BME280;34576;0.000;0.000;2024-01-30T19:23:16;98172.25;;;16.10;61.12
48774;BME280;34576;0.000;0.000;2024-01-30T19:30:19;98162.00;;;16.14;60.98
48774;BME280;34576;0.000;0.000;2024-01-30T19:37:19;98173.88;;;16.11;61.33
48774;BME280;34576;0.000;0.000;2024-01-30T19:44:25;98173.06;;;16.11;61.15
48774;BME280;34576;0.000;0.000;2024-01-30T19:51:25;98170.44;;;16.11;61.38
48774;BME280;34576;0.000;0.000;2024-01-30T19:58:25;98182.44;;;16.13;61.74
48774;BME280;34576;0.000;0.000;2024-01-30T20:05:26;98187.47;;;16.03;61.74
48774;BME280;34576;0.000;0.000;2024-01-30T20:12:26;98193.16;;;16.07;61.92
48774;BME280;34576;0.000;0.000;2024-01-30T20:19:26;98188.28;;;16.03;61.98
48774;BME280;34576;0.000;0.000;2024-01-30T20:26:26;98204.88;;;15.99;61.93
48774;BME280;34576;0.000;0.000;2024-01-30T20:33:27;98207.09;;;16.02;62.00
48774;BME280;34576;0.000;0.000;2024-01-30T20:40:27;98200.88;;;16.08;61.78
48774;BME280;34576;0.000;0.000;2024-01-30T20:47:28;98200.69;;;16.21;61.65
48774;BME280;34576;0.000;0.000;2024-01-30T20:54:28;98193.44;;;16.29;61.59
48774;BME280;34576;0.000;0.000;2024-01-30T21:01:28;98189.19;;;16.28;61.82
48774;BME280;34576;0.000;0.000;2024-01-30T21:08:28;98189.75;;;16.30;61.91
48774;BME280;34576;0.000;0.000;2024-01-30T21:15:29;98185.84;;;16.32;61.87
48774;BME280;34576;0.000;0.000;2024-01-30T21:22:29;98190.47;;;16.37;62.02
48774;BME280;34576;0.000;0.000;2024-01-30T21:29:30;98196.59;;;16.37;62.57
48774;BME280;34576;0.000;0.000;2024-01-30T21:36:30;98195.06;;;16.42;62.59
48774;BME280;34576;0.000;0.000;2024-01-30T21:43:30;98200.75;;;16.45;63.49
48774;BME280;34576;0.000;0.000;2024-01-30T21:50:30;98199.13;;;16.44;64.11
48774;BME280;34576;0.000;0.000;2024-01-30T21:57:31;98195.44;;;16.45;64.48
48774;BME280;34576;0.000;0.000;2024-01-30T22:04:31;98210.13;;;16.48;64.61
48774;BME280;34576;0.000;0.000;2024-01-30T22:11:31;98208.88;;;16.50;64.93
48774;BME280;34576;0.000;0.000;2024-01-30T22:18:31;98207.56;;;16.53;65.28
48774;BME280;34576;0.000;0.000;2024-01-30T22:25:32;98201.84;;;16.56;65.24
48774;BME280;34576;0.000;0.000;2024-01-30T22:32:32;98200.53;;;16.59;65.38
48774;BME280;34576;0.000;0.000;2024-01-30T22:39:32;98206.44;;;16.61;65.75
48774;BME280;34576;0.000;0.000;2024-01-30T22:46:33;98208.41;;;16.65;65.65
48774;BME280;34576;0.000;0.000;2024-01-30T22:53:33;98224.13;;;16.67;66.12
48774;BME280;34576;0.000;0.000;2024-01-30T23:00:34;98231.06;;;16.68;65.97
48774;BME280;34576;0.000;0.000;2024-01-30T23:07:35;98228.19;;;16.69;66.41
48774;BME280;34576;0.000;0.000;2024-01-30T23:14:39;98220.53;;;16.73;67.06
48774;BME280;34576;0.000;0.000;2024-01-30T23:21:40;98223.00;;;16.74;66.85
48774;BME280;34576;0.000;0.000;2024-01-30T23:28:40;98216.06;;;16.73;67.27
48774;BME280;34576;0.000;0.000;2024-01-30T23:35:40;98210.66;;;16.80;67.17
48774;BME280;34576;0.000;0.000;2024-01-30T23:42:40;98214.66;;;16.83;67.27
48774;BME280;34576;0.000;0.000;2024-01-30T23:49:41;98223.00;;;16.86;67.49
48774;BME280;34576;0.000;0.000;2024-01-30T23:56:42;98225.22;;;16.89;67.18
